x

Buzzards Bay, Ma (buzm3) Weather Station

3:00pm - Thu 25th May 2017 All times are EDT. -4 hours from GMT.

  • Wind
    24mph, 25mph gusts
  • 空気 Temp 54°f
  • Sea Pressure 1004.9mb
  • Buzzards Bay, Ma
  • Buzzards Bay, Ma

More Historic Weather Station data

Upgrade to MSW Pro to gain access to the past 30 days of data for over 8000 Wavebouys and Weather Stations around the globe.

Join Pro

Comparision Forecast

View Surf forecast
   
Thu 05/25 3:00pm 24 25 mph 1004.9mb 54f
2:00pm 22 24 mph 1005.6mb 53f
1:00pm 20 22 mph 1006.5mb 53f
12:00pm 23 25 mph 1007.2mb 53f
11:00am 26 30 mph 1007.5mb 54f
10:00am 25 30 mph 1008.2mb 54f
9:00am 25 28 mph 1008.4mb 55f
8:00am 21 24 mph 1009.6mb 54f
7:00am 20 23 mph 1009.7mb 54f
6:00am 18 20 mph 1010mb 55f
5:00am 20 22 mph 1010.1mb 56f
4:00am 16 17 mph 1010.4mb 55f
3:00am 15 16 mph 1010.2mb 55f
2:00am 14 15 mph 1010.5mb 55f
1:00am 11 13 mph 1011.4mb 55f
12:00am 14 14 mph 1011.4mb 55f
Wed 05/24 11:00pm 14 15 mph 1011.1mb 56f
10:00pm 17 17 mph 1011mb 56f
9:00pm 13 14 mph 1010.8mb 57f
8:00pm 15 16 mph 1009.5mb 58f
7:00pm 13 14 mph 1008.8mb 57f
6:00pm 17 17 mph 1009.9mb 57f
5:00pm 20 21 mph 1008.9mb 58f
4:00pm 21 22 mph 1008.5mb 58f
3:00pm 23 25 mph 1007.7mb 56f
2:00pm 14 15 mph 1009.3mb 56f
1:00pm 18 20 mph 1008.6mb 56f
12:00pm 10 13 mph 1008.6mb 56f
11:00am 8 8 mph 1008.2mb 56f
10:00am 15 16 mph 1007.9mb 56f
9:00am 16 17 mph 1007.9mb 56f
8:00am 15 15 mph 1007.7mb 55f
7:00am 8 8 mph 1008.2mb 55f
6:00am 8 8 mph 1008.4mb 55f
5:00am 6 7 mph 1008.4mb 55f
4:00am 7 7 mph 1008.2mb 55f
3:00am 6 6 mph 1008.7mb 55f
2:00am 6 7 mph 1009.2mb 56f
1:00am 10 11 mph 1009.9mb 55f
12:00am 13 13 mph 1010.8mb 56f
Tue 05/23 11:00pm 8 8 mph 1011.2mb 55f
10:00pm 13 14 mph 1011.3mb 55f
9:00pm 14 16 mph 1011.1mb 55f
8:00pm 11 11 mph 1010.8mb 55f
7:00pm 14 14 mph 1010.7mb 55f
6:00pm 11 11 mph 1010.5mb 55f
5:00pm 13 13 mph 1010.3mb 56f
4:00pm 11 11 mph 1010.9mb 58f
3:00pm 6 6 mph 1011.3mb 62f
2:00pm 3 3 mph 1011.3mb 60f
1:00pm 3 5 mph 1011.9mb 58f
12:00pm 6 6 mph 1013.3mb 57f
11:00am 8 9 mph 1013.4mb 56f
10:00am 15 15 mph 1013.3mb 56f
9:00am 13 14 mph 1013.6mb 57f
8:00am 13 14 mph 1013.3mb 56f
7:00am 14 14 mph 1013.5mb 56f
6:00am 10 10 mph 1013.2mb 56f
5:00am 10 11 mph 1013mb 56f
4:00am 8 8 mph 1013mb 55f
3:00am 2 2 mph 1012.8mb 55f
2:00am 11 11 mph 1013.4mb 55f
1:00am 18 20 mph 1013.4mb 55f
12:00am 22 24 mph 1013.7mb 55f
Mon 05/22 11:00pm 22 25 mph 1014.7mb 55f
10:00pm 24 25 mph 1015.3mb 54f
9:00pm 24 26 mph 1016mb 54f
8:00pm 21 24 mph 1016.5mb 54f
7:00pm 21 23 mph 1017.1mb 53f
6:00pm 21 23 mph 1017.6mb 53f
5:00pm 17 18 mph 1018.9mb 52f
4:00pm 14 14 mph 1019.7mb 51f
3:00pm 13 14 mph 1020.4mb 52f
2:00pm 14 15 mph 1021.1mb 53f
1:00pm 20 21 mph 1021.2mb 53f
12:00pm 16 17 mph 1022mb 53f
11:00am 16 17 mph 1022.7mb 53f
10:00am 17 18 mph 1023.1mb 53f
9:00am 11 13 mph 1023.8mb 53f
8:00am 9 9 mph 1024mb 52f
7:00am 8 9 mph 1024.3mb 52f
6:00am 8 9 mph 1024.4mb 53f
5:00am 7 7 mph 1024.4mb 53f
4:00am 9 9 mph 1023.7mb 53f
3:00am 10 10 mph 1024.2mb 53f
2:00am 10 10 mph 1024.6mb 53f
1:00am 11 11 mph 1025mb 53f
12:00am 10 11 mph 1025.5mb 54f
Sun 05/21 11:00pm 9 10 mph 1026.2mb 54f
10:00pm 10 11 mph 1026.4mb 54f
9:00pm 10 11 mph 1026.7mb 54f